Time;durP1;ratioP1;P1;durP2;ratioP2;P2;SDS_P1;SDS_P2;PMS_P1;PMS_P2;Temp;Humidity;BMP_temperature;BMP_pressure;BME280_temperature;BME280_humidity;BME280_pressure;Samples;Min_cycle;Max_cycle;Signal;HPM_P1;HPM_P2
2023/01/06 00:01:18;;;;;;;6.45;3.50;;;11.90;93.00;;;;;;5028484;28;20447;-67
2023/01/06 00:03:52;;;;;;;5.32;3.00;;;11.90;93.00;;;;;;5029135;28;20472;-67
2023/01/06 00:06:21;;;;;;;9.05;3.40;;;11.90;93.10;;;;;;5027914;28;20018;-67
2023/01/06 00:08:47;;;;;;;6.25;3.15;;;11.90;93.10;;;;;;5029070;28;20091;-67
2023/01/06 00:11:13;;;;;;;6.57;3.00;;;11.90;93.30;;;;;;5026294;28;20442;-67
2023/01/06 00:13:40;;;;;;;7.63;3.65;;;11.90;93.10;;;;;;5026841;28;20055;-67
2023/01/06 00:16:06;;;;;;;6.38;3.28;;;11.90;93.10;;;;;;5028360;28;20060;-67
2023/01/06 00:18:32;;;;;;;6.75;3.15;;;11.90;93.10;;;;;;5026193;28;20029;-67
2023/01/06 00:20:59;;;;;;;7.82;3.47;;;11.90;93.20;;;;;;5028437;28;20116;-67
2023/01/06 00:23:24;;;;;;;7.75;3.63;;;11.90;93.20;;;;;;5025988;28;20040;-67
2023/01/06 00:25:50;;;;;;;7.50;3.38;;;11.90;93.20;;;;;;5028069;28;20413;-67
2023/01/06 00:28:16;;;;;;;5.78;3.42;;;11.90;93.20;;;;;;5028339;28;20096;-68
2023/01/06 00:30:42;;;;;;;8.98;3.47;;;11.90;93.20;;;;;;5028588;28;20029;-67
2023/01/06 00:33:07;;;;;;;5.57;3.60;;;11.90;93.20;;;;;;5028292;28;20097;-67
2023/01/06 00:35:33;;;;;;;6.35;3.60;;;11.90;93.20;;;;;;5026635;28;20045;-67
2023/01/06 00:37:59;;;;;;;5.55;3.50;;;11.90;93.50;;;;;;5028445;28;20391;-67
2023/01/06 00:40:24;;;;;;;4.53;3.67;;;11.90;93.20;;;;;;5028458;28;20095;-67
2023/01/06 00:42:50;;;;;;;5.03;3.10;;;11.90;93.20;;;;;;5028962;28;20037;-67
2023/01/06 00:45:15;;;;;;;7.38;3.92;;;11.90;93.10;;;;;;5027221;28;20025;-67
2023/01/06 00:47:41;;;;;;;6.63;3.55;;;11.90;93.10;;;;;;5024821;28;20051;-68
2023/01/06 00:50:10;;;;;;;5.55;3.40;;;11.90;93.00;;;;;;5025632;28;20704;-67
2023/01/06 00:52:35;;;;;;;6.53;3.60;;;11.90;93.10;;;;;;5026507;28;20101;-67
2023/01/06 00:55:01;;;;;;;4.88;3.17;;;11.90;93.00;;;;;;5025866;28;20474;-67
2023/01/06 00:57:27;;;;;;;6.45;3.28;;;11.90;93.00;;;;;;5026694;28;20025;-67
2023/01/06 00:59:52;;;;;;;6.60;3.53;;;11.90;93.00;;;;;;5026174;28;20114;-67
2023/01/06 01:02:18;;;;;;;5.90;3.47;;;11.90;93.00;;;;;;5027983;28;20021;-67
2023/01/06 01:04:44;;;;;;;5.80;3.60;;;11.90;93.00;;;;;;5023751;28;20443;-67
2023/01/06 01:07:09;;;;;;;5.28;3.45;;;11.90;93.00;;;;;;5020516;28;20028;-67
2023/01/06 01:09:35;;;;;;;5.85;3.47;;;11.90;93.00;;;;;;5019197;28;20034;-67
2023/01/06 01:12:13;;;;;;;4.97;3.08;;;11.90;92.90;;;;;;5019530;28;20108;-67
2023/01/06 01:14:50;;;;;;;5.10;3.10;;;11.90;92.90;;;;;;5015470;28;20030;-67
2023/01/06 01:17:24;;;;;;;5.65;3.65;;;11.90;92.80;;;;;;5022594;28;20042;-67
2023/01/06 01:19:53;;;;;;;5.45;3.55;;;11.90;92.80;;;;;;5023611;28;20029;-67
2023/01/06 01:22:19;;;;;;;6.30;4.00;;;11.90;92.80;;;;;;5021209;28;20774;-67
2023/01/06 01:24:44;;;;;;;6.68;3.80;;;11.90;92.70;;;;;;5016913;28;20034;-67
2023/01/06 01:27:10;;;;;;;6.03;3.35;;;11.90;92.70;;;;;;5019358;28;20083;-67
2023/01/06 01:29:36;;;;;;;5.75;3.65;;;11.90;92.70;;;;;;5023001;28;20472;-67
2023/01/06 01:32:02;;;;;;;4.75;3.00;;;12.00;92.70;;;;;;5023320;28;20029;-65
2023/01/06 01:34:28;;;;;;;6.20;3.70;;;12.00;92.70;;;;;;5023177;28;20592;-67
2023/01/06 01:36:54;;;;;;;6.20;3.38;;;12.00;92.60;;;;;;5028352;28;20093;-67
2023/01/06 01:39:22;;;;;;;4.25;3.15;;;12.00;92.60;;;;;;5026631;28;20063;-67
2023/01/06 01:41:49;;;;;;;6.90;3.50;;;12.00;92.60;;;;;;5029371;28;20079;-67
2023/01/06 01:44:53;;;;;;;8.80;3.47;;;12.00;92.80;;;;;;5030088;28;20436;-67
2023/01/06 01:47:36;;;;;;;7.05;3.47;;;12.00;92.50;;;;;;5029950;28;20026;-67
2023/01/06 01:50:15;;;;;;;6.25;3.80;;;12.00;92.50;;;;;;5030163;28;20021;-67
2023/01/06 01:52:44;;;;;;;6.82;3.38;;;12.00;92.40;;;;;;5030148;28;20079;-67
2023/01/06 01:55:11;;;;;;;6.78;3.40;;;11.90;92.40;;;;;;5030269;28;20602;-67
2023/01/06 01:57:47;;;;;;;4.68;2.95;;;11.90;92.40;;;;;;5030216;28;20030;-65
2023/01/06 02:00:12;;;;;;;5.30;2.97;;;12.00;92.40;;;;;;5029692;28;20029;-66
2023/01/06 02:02:39;;;;;;;6.80;3.17;;;12.00;92.30;;;;;;5030259;28;20033;-66
2023/01/06 02:05:06;;;;;;;4.10;2.90;;;12.00;92.30;;;;;;5029666;28;20032;-66
2023/01/06 02:07:31;;;;;;;2.40;2.20;;;12.00;92.30;;;;;;5029952;28;20021;-65
2023/01/06 02:10:10;;;;;;;3.83;2.67;;;12.00;92.30;;;;;;5031916;28;20025;-65
2023/01/06 02:12:36;;;;;;;3.53;2.63;;;12.00;92.20;;;;;;5031000;28;20022;-65
2023/01/06 02:15:03;;;;;;;4.07;2.80;;;12.00;92.20;;;;;;5029801;28;20491;-66
2023/01/06 02:18:11;;;;;;;4.18;2.67;;;12.00;92.20;;;;;;5030484;28;20036;-67
2023/01/06 02:20:45;;;;;;;3.53;2.60;;;12.00;92.10;;;;;;5030594;28;20033;-67
2023/01/06 02:23:41;;;;;;;3.75;2.45;;;12.00;92.00;;;;;;5029510;28;20068;-66
2023/01/06 02:26:28;;;;;;;4.32;2.67;;;12.00;92.00;;;;;;5030909;28;20030;-66
2023/01/06 02:29:33;;;;;;;4.20;2.42;;;12.00;91.90;;;;;;5030737;28;20108;-66
2023/01/06 02:32:13;;;;;;;5.78;2.45;;;12.00;91.80;;;;;;5029997;28;20463;-66
2023/01/06 02:34:50;;;;;;;4.03;2.30;;;12.00;91.70;;;;;;5029054;28;20022;-66
2023/01/06 02:37:37;;;;;;;5.57;2.40;;;11.90;91.50;;;;;;5030673;28;20036;-66
2023/01/06 02:40:24;;;;;;;3.70;2.13;;;11.90;91.50;;;;;;5031258;28;20034;-67
2023/01/06 02:43:21;;;;;;;2.95;1.80;;;11.90;91.60;;;;;;5030076;28;20030;-67
2023/01/06 02:46:23;;;;;;;4.32;2.20;;;11.90;91.60;;;;;;5029705;28;20034;-67
2023/01/06 02:49:23;;;;;;;4.30;1.92;;;11.90;91.60;;;;;;5029124;28;20506;-67
2023/01/06 02:51:57;;;;;;;5.03;2.00;;;11.90;91.60;;;;;;5029504;28;20021;-66
2023/01/06 02:54:54;;;;;;;6.82;2.15;;;11.90;91.60;;;;;;5029159;28;20026;-66
2023/01/06 02:57:53;;;;;;;4.40;1.88;;;11.90;91.60;;;;;;5030529;28;20045;-66
2023/01/06 03:00:37;;;;;;;3.20;1.90;;;11.90;91.70;;;;;;5028219;28;20025;-66
2023/01/06 03:03:09;;;;;;;3.25;1.80;;;11.90;91.70;;;;;;5031321;28;20328;-66
2023/01/06 03:05:36;;;;;;;4.37;2.07;;;11.90;91.70;;;;;;5029513;28;20068;-66
2023/01/06 03:08:07;;;;;;;3.38;1.80;;;11.90;91.70;;;;;;5027584;28;20033;-66
2023/01/06 03:10:33;;;;;;;4.05;2.15;;;11.90;92.00;;;;;;5027328;28;20053;-66
2023/01/06 03:13:07;;;;;;;4.10;2.00;;;11.90;91.70;;;;;;5028193;28;20488;-66
2023/01/06 03:15:34;;;;;;;5.03;1.80;;;11.90;91.70;;;;;;5028103;28;20046;-66
2023/01/06 03:18:00;;;;;;;3.72;2.30;;;11.90;91.70;;;;;;5029438;28;20550;-66
2023/01/06 03:20:26;;;;;;;3.90;2.03;;;11.90;91.60;;;;;;5028812;28;20029;-66
2023/01/06 03:22:51;;;;;;;3.70;2.22;;;11.90;91.90;;;;;;5029923;28;20114;-66
2023/01/06 03:25:17;;;;;;;5.53;2.03;;;11.90;91.70;;;;;;5028607;28;20496;-66
2023/01/06 03:27:42;;;;;;;3.83;2.10;;;11.80;91.60;;;;;;5029593;28;20132;-66
2023/01/06 03:30:10;;;;;;;4.00;2.15;;;11.80;91.60;;;;;;5029693;28;20075;-66
2023/01/06 03:32:57;;;;;;;4.90;2.38;;;11.90;91.60;;;;;;5028713;28;20415;-66
2023/01/06 03:35:47;;;;;;;2.80;1.90;;;11.80;91.50;;;;;;5027985;28;20040;-66
2023/01/06 03:38:41;;;;;;;3.72;2.03;;;11.80;91.60;;;;;;5027673;28;20479;-66
2023/01/06 03:43:10;;;;;;;3.85;2.28;;;11.80;91.60;;;;;;5029814;28;20033;-66
2023/01/06 03:44:22;;;;;;;6.05;2.50;;;11.80;91.60;;;;;;5030003;28;20121;-66
2023/01/06 03:46:54;;;;;;;4.25;2.20;;;11.80;91.60;;;;;;5029338;28;20040;-66
2023/01/06 03:49:32;;;;;;;4.97;2.17;;;11.70;91.50;;;;;;5029743;28;20508;-66
2023/01/06 03:52:04;;;;;;;5.15;1.95;;;11.80;91.50;;;;;;5028898;28;20168;-66
2023/01/06 03:54:43;;;;;;;3.63;1.88;;;11.80;91.50;;;;;;5028623;28;20105;-66
2023/01/06 03:57:33;;;;;;;4.88;2.35;;;11.80;91.50;;;;;;5029649;28;20043;-66
2023/01/06 04:00:18;;;;;;;4.47;2.33;;;11.80;91.60;;;;;;5027734;28;20091;-66
2023/01/06 04:02:44;;;;;;;5.60;2.53;;;11.80;91.30;;;;;;5028666;28;20231;-66
2023/01/06 04:05:19;;;;;;;3.03;1.70;;;11.80;91.20;;;;;;5029065;28;20021;-67
2023/01/06 04:07:45;;;;;;;3.17;1.80;;;11.80;91.20;;;;;;5026898;28;20022;-66
2023/01/06 04:10:12;;;;;;;4.45;1.90;;;11.80;91.10;;;;;;5028888;28;20028;-66
2023/01/06 04:12:38;;;;;;;3.58;1.63;;;11.80;91.10;;;;;;5029573;28;20025;-66
2023/01/06 04:15:10;;;;;;;4.00;1.83;;;11.80;91.00;;;;;;5028763;28;20036;-66
2023/01/06 04:17:37;;;;;;;3.10;1.65;;;11.80;91.00;;;;;;5028427;28;20053;-66
2023/01/06 04:20:05;;;;;;;2.80;1.67;;;11.80;91.00;;;;;;5027755;28;20029;-66
2023/01/06 04:22:30;;;;;;;6.32;1.92;;;11.80;90.90;;;;;;5029201;28;20033;-66
2023/01/06 04:24:56;;;;;;;5.55;2.20;;;11.80;90.80;;;;;;5029533;28;20026;-66
2023/01/06 04:27:22;;;;;;;3.70;1.50;;;11.80;90.70;;;;;;5029592;28;20033;-66
2023/01/06 04:29:47;;;;;;;3.05;1.65;;;11.80;90.60;;;;;;5028825;28;20029;-66
2023/01/06 04:32:13;;;;;;;2.45;1.40;;;11.80;90.60;;;;;;5029336;28;20036;-66
2023/01/06 04:34:38;;;;;;;3.90;1.67;;;11.80;90.50;;;;;;5028399;28;20112;-66
2023/01/06 04:37:04;;;;;;;4.90;1.52;;;11.80;90.40;;;;;;5028566;28;20037;-66
2023/01/06 04:39:29;;;;;;;3.05;1.40;;;11.80;90.20;;;;;;5028331;28;20093;-66
2023/01/06 04:41:55;;;;;;;4.03;1.42;;;11.80;90.30;;;;;;5026435;28;20037;-67
2023/01/06 04:44:20;;;;;;;4.53;1.58;;;11.80;90.30;;;;;;5028240;28;20025;-67
2023/01/06 04:46:46;;;;;;;5.10;2.00;;;11.80;90.30;;;;;;5028032;28;20040;-66
2023/01/06 04:49:12;;;;;;;4.68;1.80;;;11.80;90.10;;;;;;5028590;28;20048;-66
2023/01/06 04:51:37;;;;;;;3.35;1.45;;;11.80;90.00;;;;;;5028486;28;20025;-67
2023/01/06 04:54:03;;;;;;;3.85;1.60;;;11.80;90.00;;;;;;5027914;28;20152;-67
2023/01/06 04:56:28;;;;;;;2.58;1.40;;;11.80;89.90;;;;;;5028614;28;20083;-67
2023/01/06 04:58:57;;;;;;;4.65;1.58;;;11.80;89.70;;;;;;5028219;28;20563;-67
2023/01/06 05:01:24;;;;;;;2.78;1.55;;;11.80;89.70;;;;;;5028314;28;20087;-67
2023/01/06 05:03:50;;;;;;;3.45;1.75;;;11.90;89.70;;;;;;5026791;28;20025;-67
2023/01/06 05:06:17;;;;;;;2.28;1.30;;;11.80;89.50;;;;;;5026785;28;20018;-67
2023/01/06 05:08:44;;;;;;;3.65;1.40;;;11.90;89.60;;;;;;5028713;28;20083;-67
2023/01/06 05:11:13;;;;;;;2.35;1.50;;;11.90;89.50;;;;;;5030806;28;20044;-67
2023/01/06 05:13:39;;;;;;;5.32;1.58;;;11.90;89.50;;;;;;5032250;28;20101;-66
2023/01/06 05:16:25;;;;;;;1.85;1.30;;;11.90;89.60;;;;;;5032237;28;20544;-67
2023/01/06 05:18:51;;;;;;;3.08;1.42;;;11.90;89.40;;;;;;5031435;28;20064;-67
2023/01/06 05:21:17;;;;;;;2.25;1.60;;;11.90;89.40;;;;;;5031943;28;20029;-67
2023/01/06 05:23:42;;;;;;;3.38;1.30;;;11.90;89.40;;;;;;5031766;28;20025;-67
2023/01/06 05:26:14;;;;;;;3.40;1.42;;;11.90;89.50;;;;;;5032449;28;20369;-67
2023/01/06 05:28:39;;;;;;;2.27;1.37;;;11.90;89.40;;;;;;5032135;28;20021;-66
2023/01/06 05:31:05;;;;;;;2.22;1.40;;;11.90;89.40;;;;;;5030589;28;20595;-66
2023/01/06 05:33:32;;;;;;;2.92;1.25;;;11.80;89.40;;;;;;5032250;28;20024;-67
2023/01/06 05:35:59;;;;;;;4.97;1.52;;;11.90;89.60;;;;;;5031907;28;20028;-66
2023/01/06 05:38:25;;;;;;;2.53;1.25;;;11.90;89.40;;;;;;5023249;28;20072;-67
2023/01/06 05:40:51;;;;;;;1.77;1.48;;;11.90;89.50;;;;;;5026229;28;20033;-66
2023/01/06 05:43:17;;;;;;;2.10;1.40;;;11.90;89.40;;;;;;5024805;28;20026;-67
2023/01/06 05:45:43;;;;;;;4.45;1.58;;;11.90;89.40;;;;;;5028041;28;20030;-66
2023/01/06 05:48:08;;;;;;;1.60;1.10;;;11.90;89.40;;;;;;5025940;28;20098;-66
2023/01/06 05:50:34;;;;;;;2.20;1.30;;;11.90;89.50;;;;;;5025475;28;20112;-67
2023/01/06 05:53:00;;;;;;;2.10;1.20;;;11.90;89.60;;;;;;5024199;28;20479;-66
2023/01/06 05:55:25;;;;;;;3.15;1.50;;;11.90;89.60;;;;;;5019112;28;20186;-66
2023/01/06 05:57:51;;;;;;;3.58;1.65;;;11.90;89.60;;;;;;5031407;28;20040;-66
2023/01/06 06:00:17;;;;;;;2.83;1.50;;;11.90;89.50;;;;;;5028209;28;20029;-66
2023/01/06 06:02:43;;;;;;;2.85;1.60;;;11.90;89.50;;;;;;5031719;28;20026;-66
2023/01/06 06:05:09;;;;;;;4.25;1.52;;;11.90;89.40;;;;;;5030229;28;20108;-66
2023/01/06 06:07:34;;;;;;;2.10;1.40;;;11.90;89.50;;;;;;5032024;28;20564;-66
2023/01/06 06:10:00;;;;;;;2.50;1.55;;;11.90;89.50;;;;;;5029814;28;20025;-66
2023/01/06 06:12:26;;;;;;;1.92;1.60;;;11.90;89.40;;;;;;5026253;28;20036;-66
2023/01/06 06:14:51;;;;;;;3.58;1.83;;;11.90;89.50;;;;;;5017378;28;20503;-66
2023/01/06 06:17:17;;;;;;;3.13;1.83;;;11.90;89.60;;;;;;5029317;28;20376;-66
2023/01/06 06:19:42;;;;;;;2.80;1.70;;;11.90;89.80;;;;;;5026253;28;20037;-66
2023/01/06 06:22:08;;;;;;;1.85;1.50;;;11.90;90.00;;;;;;5022658;28;20081;-66
2023/01/06 06:24:34;;;;;;;2.15;1.70;;;11.80;90.10;;;;;;5024276;28;20108;-66
2023/01/06 06:26:59;;;;;;;2.88;1.88;;;11.80;90.30;;;;;;5025118;28;20017;-66
2023/01/06 06:29:25;;;;;;;3.58;2.05;;;11.80;90.40;;;;;;5028322;28;20492;-66
2023/01/06 06:31:50;;;;;;;3.85;1.80;;;11.80;90.40;;;;;;5025451;28;20022;-66
2023/01/06 06:34:16;;;;;;;3.00;1.60;;;11.80;90.50;;;;;;5027596;28;20049;-66
2023/01/06 06:36:41;;;;;;;3.17;1.55;;;11.80;90.50;;;;;;5025001;28;20143;-66
2023/01/06 06:39:07;;;;;;;3.97;1.55;;;11.80;90.60;;;;;;5018895;28;20108;-66
2023/01/06 06:41:32;;;;;;;2.45;1.40;;;11.80;90.60;;;;;;5029655;28;20052;-66
2023/01/06 06:43:58;;;;;;;2.55;1.77;;;11.80;90.60;;;;;;5028541;28;20026;-66
2023/01/06 06:46:23;;;;;;;2.15;1.50;;;11.80;90.50;;;;;;5027396;28;20108;-66
2023/01/06 06:48:49;;;;;;;2.53;1.77;;;11.80;90.50;;;;;;5025010;28;20049;-66
2023/01/06 06:51:18;;;;;;;1.70;1.60;;;11.80;90.50;;;;;;5023532;28;20037;-66
2023/01/06 06:53:44;;;;;;;3.53;1.40;;;11.90;90.50;;;;;;5024382;28;20676;-66
2023/01/06 06:56:10;;;;;;;1.95;1.30;;;11.90;90.50;;;;;;5030152;28;20056;-66
2023/01/06 06:58:37;;;;;;;3.00;1.70;;;11.90;90.50;;;;;;5028124;28;20029;-66
2023/01/06 07:01:10;;;;;;;2.88;1.40;;;11.90;90.50;;;;;;5030265;28;20025;-66
2023/01/06 07:03:36;;;;;;;2.45;1.90;;;11.90;90.50;;;;;;5029463;28;20095;-66
2023/01/06 07:06:03;;;;;;;1.83;1.58;;;11.90;90.50;;;;;;5029714;28;20029;-66
2023/01/06 07:08:28;;;;;;;1.95;1.60;;;11.90;90.50;;;;;;5030637;28;20113;-66
2023/01/06 07:10:54;;;;;;;3.63;1.88;;;11.90;90.60;;;;;;5027014;28;20092;-67
2023/01/06 07:13:20;;;;;;;3.13;1.95;;;11.90;90.50;;;;;;5029261;28;20048;-65
2023/01/06 07:15:45;;;;;;;3.60;1.92;;;11.90;90.60;;;;;;5029949;28;20075;-66
2023/01/06 07:18:11;;;;;;;1.90;1.70;;;11.90;90.60;;;;;;5030296;28;20466;-66
2023/01/06 07:20:37;;;;;;;2.15;1.90;;;11.90;90.60;;;;;;5027708;28;20444;-66
2023/01/06 07:23:03;;;;;;;2.05;1.80;;;11.90;90.70;;;;;;5030208;28;20022;-66
2023/01/06 07:25:30;;;;;;;2.45;2.13;;;11.90;90.80;;;;;;5029586;28;20057;-66
2023/01/06 07:27:57;;;;;;;3.28;2.10;;;11.80;90.90;;;;;;5027522;28;20022;-66
2023/01/06 07:30:24;;;;;;;2.20;2.00;;;11.80;91.00;;;;;;5026734;28;20052;-65
2023/01/06 07:32:50;;;;;;;2.55;1.95;;;11.80;91.00;;;;;;5029937;28;20030;-65
2023/01/06 07:35:16;;;;;;;2.08;1.88;;;11.90;91.10;;;;;;5030065;28;20087;-66
2023/01/06 07:37:42;;;;;;;2.00;1.80;;;11.90;91.20;;;;;;5029849;28;20511;-65
2023/01/06 07:40:08;;;;;;;2.85;2.55;;;11.80;91.30;;;;;;5030182;28;20044;-65
2023/01/06 07:42:36;;;;;;;2.90;2.20;;;11.80;91.40;;;;;;5029987;28;20391;-66
2023/01/06 07:45:03;;;;;;;3.55;2.67;;;11.80;91.60;;;;;;5029877;28;20646;-66
2023/01/06 07:47:28;;;;;;;2.65;2.40;;;11.70;91.90;;;;;;5030355;28;20018;-66
2023/01/06 07:49:54;;;;;;;2.83;2.22;;;11.70;92.10;;;;;;5028368;28;20025;-65
2023/01/06 07:52:20;;;;;;;3.53;2.63;;;11.70;92.30;;;;;;5028125;28;20029;-66
2023/01/06 07:54:45;;;;;;;3.50;3.20;;;11.60;92.50;;;;;;5026108;28;20036;-65
2023/01/06 07:57:11;;;;;;;3.33;3.00;;;11.60;92.80;;;;;;5019274;28;20446;-65
2023/01/06 07:59:36;;;;;;;3.50;3.20;;;11.50;93.10;;;;;;5021457;28;20377;-65
2023/01/06 08:02:02;;;;;;;4.43;3.22;;;11.50;93.50;;;;;;5022776;28;20052;-65
2023/01/06 08:04:27;;;;;;;3.30;3.10;;;11.50;93.70;;;;;;5025296;28;20112;-65
2023/01/06 08:06:53;;;;;;;3.38;3.05;;;11.40;93.90;;;;;;5033784;28;20029;-65
2023/01/06 08:09:19;;;;;;;4.18;3.55;;;11.50;93.90;;;;;;5028199;28;20029;-66
2023/01/06 08:11:44;;;;;;;4.70;4.28;;;11.40;94.00;;;;;;5030408;28;20645;-65
2023/01/06 08:14:11;;;;;;;4.65;4.22;;;11.40;94.10;;;;;;5027092;28;20034;-65
2023/01/06 08:16:39;;;;;;;4.72;4.22;;;11.50;94.30;;;;;;5023810;28;20492;-65
2023/01/06 08:19:05;;;;;;;4.10;3.80;;;11.50;94.40;;;;;;5034106;28;20032;-65
2023/01/06 08:21:31;;;;;;;4.90;4.40;;;11.50;94.40;;;;;;5026697;28;20042;-65
2023/01/06 08:23:56;;;;;;;4.20;3.85;;;11.50;94.50;;;;;;5028174;28;20029;-65
2023/01/06 08:26:22;;;;;;;5.13;3.85;;;11.50;94.50;;;;;;5027518;28;20120;-66
2023/01/06 08:28:48;;;;;;;4.18;3.78;;;11.60;94.50;;;;;;5028021;28;20438;-65
2023/01/06 08:31:17;;;;;;;3.80;3.40;;;11.60;94.50;;;;;;5027030;28;20112;-65
2023/01/06 08:33:43;;;;;;;3.58;3.28;;;11.60;94.50;;;;;;5024399;28;20035;-65
2023/01/06 08:36:12;;;;;;;4.63;3.80;;;11.60;94.50;;;;;;5026963;28;20052;-65
2023/01/06 08:38:37;;;;;;;4.35;3.95;;;11.60;94.50;;;;;;5028767;28;20064;-66
2023/01/06 08:41:03;;;;;;;5.32;4.25;;;11.60;94.50;;;;;;5028172;28;20045;-65
2023/01/06 08:43:30;;;;;;;3.40;3.10;;;11.60;94.50;;;;;;5026877;28;20029;-65
2023/01/06 08:46:04;;;;;;;4.20;3.80;;;11.60;94.50;;;;;;5027312;28;20021;-65
2023/01/06 08:48:31;;;;;;;3.42;3.13;;;11.60;94.50;;;;;;5026822;28;20022;-66
2023/01/06 08:51:15;;;;;;;5.07;3.33;;;11.60;94.40;;;;;;5027581;28;20036;-66
2023/01/06 08:53:42;;;;;;;4.85;3.40;;;11.60;94.40;;;;;;5025573;28;20030;-66
2023/01/06 08:56:13;;;;;;;3.17;2.88;;;11.60;94.30;;;;;;5021005;28;20491;-65
2023/01/06 08:58:39;;;;;;;3.13;2.67;;;11.70;94.30;;;;;;5026181;28;20496;-65
2023/01/06 09:01:04;;;;;;;3.75;3.30;;;11.80;94.20;;;;;;5017979;28;20057;-65
2023/01/06 09:03:30;;;;;;;4.15;2.88;;;11.80;94.10;;;;;;5023212;28;20021;-65
2023/01/06 09:05:57;;;;;;;3.33;3.05;;;11.80;94.10;;;;;;5021326;28;22004;-65
2023/01/06 09:08:23;;;;;;;3.13;2.70;;;11.80;94.10;;;;;;5025214;28;20843;-65
2023/01/06 09:10:49;;;;;;;3.55;2.90;;;11.80;94.10;;;;;;5019861;28;20104;-66
2023/01/06 09:13:15;;;;;;;4.85;2.72;;;11.80;94.00;;;;;;5020047;28;20032;-65
2023/01/06 09:15:43;;;;;;;4.13;2.53;;;11.80;94.00;;;;;;5024419;28;20036;-65
2023/01/06 09:18:09;;;;;;;5.03;3.10;;;11.90;93.90;;;;;;5022001;28;20034;-66
2023/01/06 09:20:36;;;;;;;2.70;2.42;;;11.90;93.70;;;;;;5015681;28;20044;-66
2023/01/06 09:23:02;;;;;;;3.40;2.50;;;11.90;93.70;;;;;;5018453;28;20688;-66
2023/01/06 09:25:28;;;;;;;4.65;2.65;;;12.00;93.70;;;;;;5025231;28;20373;-66
2023/01/06 09:27:53;;;;;;;3.08;2.58;;;12.00;93.50;;;;;;5026474;28;20065;-66
2023/01/06 09:30:19;;;;;;;5.88;2.50;;;12.00;93.40;;;;;;5022605;28;20029;-65
2023/01/06 09:32:44;;;;;;;2.60;2.00;;;12.10;93.30;;;;;;5024665;28;20030;-66
2023/01/06 09:35:10;;;;;;;2.90;2.00;;;12.10;93.20;;;;;;5022879;28;20033;-66
2023/01/06 09:37:36;;;;;;;3.35;2.20;;;12.10;93.00;;;;;;5024036;28;20112;-66
2023/01/06 09:40:02;;;;;;;3.65;2.00;;;12.20;92.90;;;;;;5024278;28;20435;-66
2023/01/06 09:42:50;;;;;;;5.20;2.10;;;12.20;92.80;;;;;;5026999;28;20036;-66
2023/01/06 09:45:18;;;;;;;3.85;1.90;;;12.20;92.60;;;;;;5025766;28;20039;-66
2023/01/06 09:47:56;;;;;;;4.45;2.08;;;12.20;92.40;;;;;;5027027;28;20045;-66
2023/01/06 09:50:30;;;;;;;4.38;2.28;;;12.20;92.40;;;;;;5027151;28;20040;-65
2023/01/06 09:53:00;;;;;;;3.65;1.90;;;12.20;92.20;;;;;;5025333;28;20035;-66
2023/01/06 09:55:34;;;;;;;4.15;2.08;;;12.30;92.10;;;;;;5026410;28;20597;-66
2023/01/06 09:58:14;;;;;;;3.72;2.10;;;12.30;92.20;;;;;;5028573;28;20024;-66
2023/01/06 10:00:46;;;;;;;4.80;2.28;;;12.30;91.70;;;;;;5028805;28;20028;-66
2023/01/06 10:03:21;;;;;;;3.92;2.45;;;12.30;91.50;;;;;;5027272;28;20026;-66
2023/01/06 10:06:24;;;;;;;5.00;2.47;;;12.20;91.40;;;;;;5026558;28;20040;-66
2023/01/06 10:09:37;;;;;;;5.43;2.47;;;12.20;91.40;;;;;;5026960;28;20037;-66
2023/01/06 10:12:36;;;;;;;6.05;2.38;;;12.20;91.30;;;;;;5023561;28;20045;-66
2023/01/06 10:15:21;;;;;;;4.80;2.28;;;12.10;91.30;;;;;;5026838;28;20075;-66
2023/01/06 10:18:15;;;;;;;4.22;2.05;;;12.10;91.30;;;;;;5020842;28;20045;-66
2023/01/06 10:20:59;;;;;;;4.78;1.90;;;12.10;91.30;;;;;;5026983;28;20053;-66
2023/01/06 10:23:43;;;;;;;3.97;1.90;;;12.10;91.40;;;;;;5029003;28;20113;-66
2023/01/06 10:26:18;;;;;;;5.93;1.60;;;12.20;91.40;;;;;;5026556;28;20120;-66
2023/01/06 10:28:51;;;;;;;6.32;1.80;;;12.20;91.20;;;;;;5027647;28;20025;-66
2023/01/06 10:31:22;;;;;;;5.32;1.90;;;12.10;91.10;;;;;;5023533;28;20025;-66
2023/01/06 10:33:57;;;;;;;5.93;1.63;;;12.20;91.00;;;;;;5026338;28;20034;-66
2023/01/06 10:36:31;;;;;;;3.25;1.17;;;12.20;90.80;;;;;;5022313;28;20028;-66
2023/01/06 10:38:57;;;;;;;4.65;1.50;;;12.20;90.70;;;;;;5025329;28;20040;-66
2023/01/06 10:41:48;;;;;;;7.45;1.85;;;12.20;90.70;;;;;;5026494;28;20029;-66
2023/01/06 10:44:14;;;;;;;3.55;1.55;;;12.20;90.50;;;;;;5029242;28;20593;-66
2023/01/06 10:46:40;;;;;;;4.80;1.40;;;12.30;90.40;;;;;;5024459;28;20033;-66
2023/01/06 10:49:15;;;;;;;5.35;1.33;;;12.30;90.20;;;;;;5025579;28;20779;-66
2023/01/06 10:51:44;;;;;;;2.40;1.05;;;12.40;90.00;;;;;;5029604;28;20488;-66
2023/01/06 10:54:14;;;;;;;4.47;1.23;;;12.40;89.80;;;;;;5029913;28;20025;-66
2023/01/06 10:56:45;;;;;;;5.10;1.20;;;12.40;89.50;;;;;;5029563;28;20021;-66
2023/01/06 10:59:11;;;;;;;3.50;1.30;;;12.50;89.30;;;;;;5028533;28;20075;-66
2023/01/06 11:01:49;;;;;;;4.88;1.30;;;12.50;88.20;;;;;;5030063;28;20025;-66
2023/01/06 11:04:16;;;;;;;3.33;1.35;;;12.60;87.70;;;;;;5029633;28;20102;-66
2023/01/06 11:06:51;;;;;;;5.07;1.40;;;12.50;86.50;;;;;;5026261;28;20028;-66
2023/01/06 11:09:35;;;;;;;5.20;1.40;;;12.50;86.20;;;;;;5023391;28;20029;-66
2023/01/06 11:12:07;;;;;;;3.83;1.30;;;12.60;86.20;;;;;;5030220;28;20026;-66
2023/01/06 11:14:34;;;;;;;4.35;1.20;;;12.60;85.90;;;;;;5030120;28;20604;-66
2023/01/06 11:17:13;;;;;;;6.07;1.33;;;12.60;85.40;;;;;;5028277;28;20112;-66
2023/01/06 11:19:41;;;;;;;3.78;1.23;;;12.60;84.80;;;;;;5027386;28;20038;-66
2023/01/06 11:22:44;;;;;;;3.92;1.15;;;12.60;84.40;;;;;;5029944;28;20059;-66
2023/01/06 11:25:35;;;;;;;;;;;12.60;84.20;;;;;;5029951;28;20025;-66
2023/01/06 11:28:13;;;;;;;5.00;1.30;;;12.60;83.60;;;;;;5028313;28;20327;-66
2023/01/06 11:30:43;;;;;;;5.13;1.25;;;12.50;82.90;;;;;;5029665;28;20514;-67
2023/01/06 11:33:30;;;;;;;5.47;1.20;;;12.40;81.60;;;;;;5028474;28;20031;-66
2023/01/06 11:35:57;;;;;;;2.92;1.00;;;12.40;81.60;;;;;;5030080;28;20388;-66
2023/01/06 11:38:23;;;;;;;1.95;0.90;;;12.40;81.50;;;;;;5025032;28;20129;-66
2023/01/06 11:40:51;;;;;;;2.58;0.90;;;12.50;81.50;;;;;;5030102;28;20044;-66
2023/01/06 11:43:30;;;;;;;2.53;1.00;;;12.50;81.20;;;;;;5028614;28;20022;-66
2023/01/06 11:46:01;;;;;;;4.57;1.10;;;12.50;81.20;;;;;;5029266;28;20029;-66
2023/01/06 11:48:34;;;;;;;5.05;1.13;;;12.50;80.70;;;;;;5024825;28;20017;-66
2023/01/06 11:51:05;;;;;;;4.55;1.15;;;12.50;80.40;;;;;;5028745;28;20014;-66
2023/01/06 11:53:33;;;;;;;3.67;1.00;;;12.50;80.30;;;;;;5026326;28;20437;-66
2023/01/06 11:55:58;;;;;;;3.47;1.20;;;12.60;80.40;;;;;;5029018;28;20049;-66
2023/01/06 11:58:45;;;;;;;3.20;1.10;;;12.70;80.00;;;;;;5026928;28;20048;-65
2023/01/06 12:01:34;;;;;;;5.45;1.13;;;12.70;79.80;;;;;;5027894;28;20033;-66
2023/01/06 12:04:35;;;;;;;5.07;1.52;;;12.70;79.50;;;;;;5027943;28;20037;-66
2023/01/06 12:07:24;;;;;;;4.32;1.13;;;12.70;78.90;;;;;;5029095;28;20099;-66
2023/01/06 12:09:51;;;;;;;4.43;1.10;;;12.60;79.00;;;;;;5025995;28;20036;-66
2023/01/06 12:12:24;;;;;;;4.63;1.27;;;12.60;79.10;;;;;;5029382;28;20100;-66
2023/01/06 12:14:50;;;;;;;5.25;1.30;;;12.60;79.30;;;;;;5024913;28;20511;-66
2023/01/06 12:17:33;;;;;;;5.03;1.23;;;12.60;79.50;;;;;;5028680;28;20093;-65
2023/01/06 12:20:33;;;;;;;4.80;1.30;;;12.70;79.80;;;;;;5027184;28;20112;-65
2023/01/06 12:23:09;;;;;;;3.95;1.13;;;12.70;79.90;;;;;;5025457;28;20053;-66
2023/01/06 12:25:42;;;;;;;4.32;1.20;;;12.80;80.20;;;;;;5027022;28;20120;-66
2023/01/06 12:28:13;;;;;;;3.90;1.30;;;12.90;80.10;;;;;;5024708;28;20025;-66
2023/01/06 12:30:49;;;;;;;4.10;1.20;;;13.00;79.40;;;;;;5027218;28;20037;-65
2023/01/06 12:33:25;;;;;;;5.65;1.60;;;13.10;79.80;;;;;;5029907;28;20707;-65
2023/01/06 12:35:58;;;;;;;4.38;1.48;;;13.30;79.70;;;;;;5028941;28;20033;-65
2023/01/06 12:38:23;;;;;;;7.35;1.58;;;13.80;78.60;;;;;;5023853;28;20448;-65
2023/01/06 12:40:54;;;;;;;4.32;1.38;;;14.30;77.00;;;;;;5029791;28;20116;-65
2023/01/06 12:43:28;;;;;;;2.35;1.27;;;14.50;74.60;;;;;;5026993;28;20099;-66
2023/01/06 12:46:04;;;;;;;5.68;1.25;;;14.80;74.30;;;;;;5028477;28;20026;-65
2023/01/06 12:48:46;;;;;;;4.80;1.20;;;15.00;72.20;;;;;;5026551;28;20075;-66
2023/01/06 12:51:27;;;;;;;5.47;1.45;;;15.20;70.90;;;;;;5028841;28;20241;-65
2023/01/06 12:54:02;;;;;;;3.65;1.13;;;15.30;70.20;;;;;;5024488;28;20108;-65
2023/01/06 12:56:31;;;;;;;3.65;1.10;;;15.60;69.10;;;;;;5025104;28;20044;-65
2023/01/06 12:59:19;;;;;;;3.85;1.02;;;16.10;67.60;;;;;;5026424;28;20017;-65
2023/01/06 13:01:52;;;;;;;2.30;1.00;;;16.60;66.60;;;;;;5028444;28;20030;-66
2023/01/06 13:04:38;;;;;;;2.05;0.90;;;16.40;65.80;;;;;;5028542;28;20041;-65
2023/01/06 13:07:24;;;;;;;3.53;1.33;;;16.00;66.10;;;;;;5028163;28;20033;-65
2023/01/06 13:10:07;;;;;;;2.35;0.82;;;15.50;67.20;;;;;;5026269;28;20022;-65